Time;durP1;ratioP1;P1;durP2;ratioP2;P2;SDS_P1;SDS_P2;PMS_P1;PMS_P2;Temp;Humidity;BMP_temperature;BMP_pressure;BME280_temperature;BME280_humidity;BME280_pressure;Samples;Min_cycle;Max_cycle;Signal;HPM_P1;HPM_P2
2021/10/18 00:00:25;;;;;;;;;36.50;32.00;;;;;14.91;42.46;99317.91;7582731;23;98196;-66
2021/10/18 00:03:34;;;;;;;;;34.60;31.00;;;;;14.82;42.67;99313.91;7608953;22;96936;-64
2021/10/18 00:06:38;;;;;;;;;37.75;31.75;;;;;14.78;42.85;99314.63;7558008;23;97866;-66
2021/10/18 00:09:42;;;;;;;;;38.25;32.00;;;;;14.74;42.96;99311.56;7583301;23;96508;-65
2021/10/18 00:12:45;;;;;;;;;38.40;32.00;;;;;14.69;43.25;99315.00;7582562;23;99527;-64
2021/10/18 00:15:48;;;;;;;;;35.00;30.00;;;;;14.58;43.14;99306.84;7585191;23;97334;-63
2021/10/18 00:18:53;;;;;;;;;36.25;32.25;;;;;14.66;43.30;99315.44;7582065;23;98416;-65
2021/10/18 00:21:57;;;;;;;;;40.50;33.00;;;;;14.63;43.35;99315.09;7585127;23;97420;-64
2021/10/18 00:25:01;;;;;;;;;37.50;32.00;;;;;14.57;43.46;99310.63;7585065;23;97432;-65
2021/10/18 00:28:05;;;;;;;;;35.40;31.00;;;;;14.50;43.68;99315.38;7584155;23;96612;-65
2021/10/18 00:31:08;;;;;;;;;36.20;30.00;;;;;14.47;43.79;99313.09;7584618;23;97675;-66
2021/10/18 00:34:12;;;;;;;;;35.40;32.00;;;;;14.45;43.75;99309.81;7582275;23;97651;-66
2021/10/18 00:37:19;;;;;;;;;35.00;30.00;;;;;14.35;46.51;99313.09;7583257;23;98346;-65
2021/10/18 00:40:22;;;;;;;;;31.80;29.20;;;;;14.35;45.63;99302.25;7584867;23;97089;-65
2021/10/18 00:43:26;;;;;;;;;35.40;31.40;;;;;14.38;44.60;99301.78;7582374;23;96666;-65
2021/10/18 00:46:30;;;;;;;;;38.00;32.00;;;;;14.41;44.36;99304.06;7584664;22;96399;-66
2021/10/18 00:49:33;;;;;;;;;35.00;30.00;;;;;14.42;44.10;99304.84;7583492;23;96799;-64
2021/10/18 00:52:39;;;;;;;;;33.40;30.00;;;;;14.39;44.09;99306.16;7583549;23;98369;-64
2021/10/18 00:55:43;;;;;;;;;35.00;31.00;;;;;14.37;44.12;99292.00;7608015;22;97348;-65
2021/10/18 00:58:48;;;;;;;;;34.00;30.60;;;;;14.36;44.13;99294.94;7584897;23;97221;-65
2021/10/18 01:01:55;;;;;;;;;35.60;31.60;;;;;14.35;44.13;99287.84;7584650;23;97506;-63
2021/10/18 01:04:59;;;;;;;;;34.60;31.00;;;;;14.35;44.29;99296.00;7584828;23;97410;-65
2021/10/18 01:08:03;;;;;;;;;34.40;31.00;;;;;14.38;44.26;99299.06;7607952;22;96812;-64
2021/10/18 01:11:10;;;;;;;;;36.40;32.00;;;;;14.41;44.23;99301.34;7584871;22;96958;-64
2021/10/18 01:14:13;;;;;;;;;34.40;30.00;;;;;14.44;44.28;99305.44;7584861;23;97497;-65
2021/10/18 01:17:17;;;;;;;;;35.80;32.00;;;;;14.43;44.06;99311.94;7584344;22;96763;-65
2021/10/18 01:20:29;;;;;;;;;34.60;30.60;;;;;14.44;44.21;99306.28;7607663;22;96902;-66
2021/10/18 01:23:32;;;;;;;;;37.40;32.00;;;;;14.44;43.98;99310.88;7584719;23;96470;-65
2021/10/18 01:26:35;;;;;;;;;37.00;31.60;;;;;14.43;44.11;99309.22;7582332;23;97778;-65
2021/10/18 01:29:38;;;;;;;;;38.20;31.60;;;;;14.42;44.05;99304.84;7582565;23;97830;-66
2021/10/18 01:32:43;;;;;;;;;33.40;30.80;;;;;14.44;44.11;99308.16;7581422;23;97017;-66
2021/10/18 01:35:47;;;;;;;;;36.00;30.50;;;;;14.42;44.34;99312.97;7584827;23;97472;-64
2021/10/18 01:38:51;;;;;;;;;37.00;33.00;;;;;14.38;44.31;99298.25;7584458;23;96397;-64
2021/10/18 01:41:54;;;;;;;;;36.00;32.00;;;;;14.37;44.40;99302.84;7584209;23;97952;-66
2021/10/18 01:44:57;;;;;;;;;37.00;32.00;;;;;14.36;44.42;99303.94;7607913;22;96619;-65
2021/10/18 01:48:01;;;;;;;;;38.40;32.00;;;;;14.38;44.49;99301.78;7582009;23;97174;-65
2021/10/18 01:51:08;;;;;;;;;41.50;33.25;;;;;14.39;44.50;99303.44;7583291;23;97006;-64
2021/10/18 01:54:11;;;;;;;;;41.00;33.00;;;;;14.30;44.45;99299.41;7581909;23;96965;-65
2021/10/18 01:57:15;;;;;;;;;40.00;33.00;;;;;14.35;44.59;99294.09;7607285;22;96669;-65
2021/10/18 02:00:19;;;;;;;;;39.20;33.00;;;;;14.32;44.63;99298.09;7582120;23;97866;-66
2021/10/18 02:03:22;;;;;;;;;36.00;31.40;;;;;14.29;44.82;99295.88;7584250;23;97408;-65
2021/10/18 02:06:28;;;;;;;;;37.20;33.00;;;;;14.30;44.78;99294.00;7582541;23;97423;-65
2021/10/18 02:09:31;;;;;;;;;43.20;33.60;;;;;14.27;44.96;99297.97;7583945;23;96980;-64
2021/10/18 02:12:35;;;;;;;;;40.60;33.00;;;;;14.24;45.06;99295.75;7583997;23;96597;-64
2021/10/18 02:15:39;;;;;;;;;36.25;33.00;;;;;14.23;45.13;99295.97;7584482;23;96838;-64
2021/10/18 02:18:42;;;;;;;;;42.00;34.00;;;;;14.22;45.21;99294.34;7584436;22;97109;-63
2021/10/18 02:21:47;;;;;;;;;42.20;32.60;;;;;14.22;45.06;99288.91;7583906;23;97479;-64
2021/10/18 02:24:51;;;;;;;;;36.60;31.60;;;;;14.22;45.07;99294.34;7582555;23;97733;-65
2021/10/18 02:27:54;;;;;;;;;40.80;33.00;;;;;14.23;44.97;99299.50;7583437;22;97324;-66
2021/10/18 02:30:58;;;;;;;;;36.00;32.40;;;;;14.22;45.23;99306.00;7583768;23;97425;-64
2021/10/18 02:34:01;;;;;;;;;37.50;32.50;;;;;14.19;45.02;99302.94;7583039;22;96984;-65
2021/10/18 02:37:08;;;;;;;;;37.60;31.00;;;;;14.17;45.09;99297.75;7584552;22;97356;-65
2021/10/18 02:40:12;;;;;;;;;35.00;31.00;;;;;14.19;45.14;99303.75;7583381;23;96558;-66
2021/10/18 02:43:15;;;;;;;;;37.00;32.00;;;;;14.18;45.02;99299.41;7583860;23;96450;-65
2021/10/18 02:46:19;;;;;;;;;34.20;30.60;;;;;14.17;45.07;99296.94;7583912;23;97375;-65
2021/10/18 02:49:22;;;;;;;;;35.67;30.67;;;;;14.15;45.13;99290.91;7584427;22;97418;-65
2021/10/18 02:52:27;;;;;;;;;35.20;30.00;;;;;14.14;45.16;99291.97;7582062;23;96763;-63
2021/10/18 02:55:30;;;;;;;;;34.75;30.00;;;;;14.11;45.24;99290.56;7582032;23;98443;-64
2021/10/18 02:58:33;;;;;;;;;34.20;31.20;;;;;14.14;45.26;99300.09;7583398;23;96964;-64
2021/10/18 03:01:37;;;;;;;;;39.50;33.50;;;;;14.17;45.24;99299.66;7629731;22;97757;-64
2021/10/18 03:04:40;;;;;;;;;37.00;32.00;;;;;14.13;45.30;99304.69;7584277;23;97062;-65
2021/10/18 03:07:50;;;;;;;;;35.00;30.00;;;;;14.01;45.58;99303.88;7583792;23;97106;-64
2021/10/18 03:10:53;;;;;;;;;36.00;32.00;;;;;13.90;45.87;99296.53;7585778;23;96915;-65
2021/10/18 03:13:57;;;;;;;;;38.00;32.00;;;;;13.84;45.78;99292.88;7585902;23;97049;-63
2021/10/18 03:17:04;;;;;;;;;38.50;32.50;;;;;13.80;46.08;99290.84;7584141;23;97896;-66
2021/10/18 03:20:10;;;;;;;;;37.40;33.00;;;;;13.78;46.26;99293.00;7585405;23;97217;-66
2021/10/18 03:23:14;;;;;;;;;39.60;35.00;;;;;13.71;46.52;99293.09;7609505;22;96845;-63
2021/10/18 03:26:19;;;;;;;;;38.25;33.50;;;;;13.73;46.52;99304.50;7608487;22;97282;-63
2021/10/18 03:29:22;;;;;;;;;42.50;34.00;;;;;13.76;46.36;99306.75;7585141;23;97394;-64
2021/10/18 03:32:25;;;;;;;;;46.00;36.00;;;;;13.78;46.34;99296.50;7584058;23;97469;-64
2021/10/18 03:35:28;;;;;;;;;43.75;35.00;;;;;13.84;46.29;99303.72;7584952;23;97004;-64
2021/10/18 03:38:33;;;;;;;;;43.40;35.00;;;;;13.88;46.53;99304.88;7584799;23;96489;-65
2021/10/18 03:41:37;;;;;;;;;46.75;36.00;;;;;13.88;46.54;99310.31;7583466;23;96634;-65
2021/10/18 03:44:40;;;;;;;;;46.00;37.75;;;;;13.90;46.33;99307.38;7585013;23;97476;-65
2021/10/18 03:47:43;;;;;;;;;46.00;37.75;;;;;13.94;46.55;99308.56;7581504;23;97159;-65
2021/10/18 03:50:46;;;;;;;;;48.20;39.00;;;;;13.96;46.74;99314.59;7584818;22;97484;-63
2021/10/18 03:53:51;;;;;;;;;49.00;39.00;;;;;14.01;46.68;99314.72;7583510;22;96885;-65
2021/10/18 03:56:54;;;;;;;;;46.60;39.00;;;;;14.05;46.64;99315.06;7585976;23;96393;-63
2021/10/18 03:59:57;;;;;;;;;50.25;41.00;;;;;14.03;46.68;99312.56;7583009;23;97493;-65
2021/10/18 04:03:01;;;;;;;;;48.80;40.00;;;;;14.00;46.69;99317.66;7585009;23;96926;-64
2021/10/18 04:06:05;;;;;;;;;50.00;39.00;;;;;13.97;46.59;99326.25;7584139;22;97963;-65
2021/10/18 04:09:10;;;;;;;;;45.60;38.00;;;;;13.97;46.70;99316.25;7585022;23;97165;-64
2021/10/18 04:12:13;;;;;;;;;53.00;40.00;;;;;14.00;46.70;99318.47;7585070;22;97068;-65
2021/10/18 04:15:17;;;;;;;;;49.60;39.60;;;;;14.00;46.61;99323.06;7582285;23;97104;-64
2021/10/18 04:18:21;;;;;;;;;49.00;39.00;;;;;13.96;46.81;99333.56;7585375;23;97488;-64
2021/10/18 04:21:25;;;;;;;;;49.00;40.00;;;;;13.85;46.76;99321.63;7585242;23;96935;-63
2021/10/18 04:24:29;;;;;;;;;47.40;38.40;;;;;14.00;46.74;99339.34;7585072;23;97510;-63
2021/10/18 04:27:33;;;;;;;;;47.00;37.00;;;;;13.97;46.71;99337.09;7583123;23;97454;-63
2021/10/18 04:30:36;;;;;;;;;46.40;38.00;;;;;13.99;46.86;99345.81;7585451;23;96491;-63
2021/10/18 04:33:39;;;;;;;;;48.40;40.00;;;;;14.01;46.67;99339.13;7584130;23;98774;-64
2021/10/18 04:36:43;;;;;;;;;46.00;37.00;;;;;13.77;46.74;99296.75;7585696;22;96432;-66
2021/10/18 04:39:47;;;;;;;;;41.80;35.20;;;;;13.98;46.61;99330.59;7585280;23;96526;-63
2021/10/18 04:42:50;;;;;;;;;46.00;35.50;;;;;13.99;46.73;99341.22;7632866;22;98789;-63
2021/10/18 04:45:54;;;;;;;;;46.25;38.00;;;;;13.99;46.71;99343.94;7585109;23;97089;-65
2021/10/18 04:48:57;;;;;;;;;47.80;36.60;;;;;14.02;46.88;99346.19;7585079;22;97282;-65
2021/10/18 04:52:01;;;;;;;;;45.00;37.00;;;;;14.08;46.56;99352.53;7585140;23;97043;-66
2021/10/18 04:55:06;;;;;;;;;47.40;37.00;;;;;14.08;46.46;99352.53;7585395;23;97082;-66
2021/10/18 04:58:10;;;;;;;;;45.50;38.00;;;;;14.09;46.58;99359.63;7607754;22;96561;-64
2021/10/18 05:01:14;;;;;;;;;39.75;33.00;;;;;14.12;46.33;99370.03;7584984;23;96402;-64
2021/10/18 05:04:17;;;;;;;;;43.50;35.75;;;;;14.16;46.35;99366.59;7584783;23;96573;-64
2021/10/18 05:07:20;;;;;;;;;43.00;35.00;;;;;14.08;46.46;99375.06;7632903;22;97319;-64
2021/10/18 05:10:25;;;;;;;;;42.00;33.00;;;;;14.09;46.70;99378.59;7584816;23;97486;-64
2021/10/18 05:13:28;;;;;;;;;40.25;32.50;;;;;14.10;46.48;99378.38;7585238;23;96482;-63
2021/10/18 05:16:31;;;;;;;;;42.40;33.60;;;;;14.23;46.54;99386.28;7584436;23;96724;-64
2021/10/18 05:19:35;;;;;;;;;40.50;35.00;;;;;14.29;46.47;99393.50;7608712;22;97384;-65
2021/10/18 05:22:38;;;;;;;;;44.60;36.00;;;;;14.32;46.60;99394.91;7583997;23;96510;-63
2021/10/18 05:25:43;;;;;;;;;43.00;35.00;;;;;14.32;46.81;99405.75;7583852;23;97053;-68
2021/10/18 05:28:46;;;;;;;;;42.75;35.50;;;;;14.31;47.01;99412.28;7581305;22;97246;-67
2021/10/18 05:31:50;;;;;;;;;42.25;36.00;;;;;14.28;47.10;99404.59;7607679;22;97317;-68
2021/10/18 05:34:53;;;;;;;;;46.80;36.80;;;;;14.30;47.46;99408.72;7581724;23;98443;-68
2021/10/18 05:37:59;;;;;;;;;44.40;36.00;;;;;14.26;47.48;99412.13;7582343;23;96513;-68
2021/10/18 05:41:04;;;;;;;;;47.00;37.00;;;;;14.25;47.65;99422.16;7582648;22;97426;-69
2021/10/18 05:44:07;;;;;;;;;46.00;36.00;;;;;14.23;47.75;99428.84;7609403;22;97349;-69
2021/10/18 05:47:10;;;;;;;;;47.25;37.00;;;;;14.25;47.79;99422.16;7581790;23;97521;-66
2021/10/18 05:50:14;;;;;;;;;44.50;36.00;;;;;14.28;48.17;99437.97;7581910;23;97722;-63
2021/10/18 05:53:17;;;;;;;;;46.60;37.00;;;;;14.24;48.37;99439.50;7582852;23;97380;-66
2021/10/18 05:56:22;;;;;;;;;49.00;39.00;;;;;14.19;48.33;99442.06;7632848;22;96951;-66
2021/10/18 05:59:25;;;;;;;;;47.00;38.40;;;;;14.15;48.59;99445.47;7583821;23;96782;-67
2021/10/18 06:02:29;;;;;;;;;46.20;37.80;;;;;14.04;49.01;99443.53;7607435;22;97614;-71
2021/10/18 06:05:34;;;;;;;;;45.00;38.00;;;;;14.03;49.11;99448.13;7633033;22;96671;-69
2021/10/18 06:08:37;;;;;;;;;41.60;35.00;;;;;14.03;49.01;99444.59;7584917;23;97211;-67
2021/10/18 06:11:42;;;;;;;;;44.25;36.00;;;;;13.93;49.43;99447.06;7586003;23;96570;-67
2021/10/18 06:14:46;;;;;;;;;44.80;35.00;;;;;13.91;49.71;99446.44;7586411;23;97031;-69
2021/10/18 06:17:49;;;;;;;;;45.00;36.80;;;;;13.75;49.87;99440.59;7585837;23;97251;-69
2021/10/18 06:20:54;;;;;;;;;41.00;34.50;;;;;13.87;50.10;99448.78;7586298;22;96941;-67
2021/10/18 06:23:57;;;;;;;;;44.00;36.20;;;;;13.89;50.01;99468.34;7583617;23;96899;-67
2021/10/18 06:27:02;;;;;;;;;38.60;34.00;;;;;13.89;50.03;99471.06;7606978;22;96800;-68
2021/10/18 06:30:07;;;;;;;;;40.00;35.00;;;;;13.88;50.22;99472.94;7584615;23;97413;-66
2021/10/18 06:33:11;;;;;;;;;42.40;35.00;;;;;13.89;50.44;99473.78;7609520;22;97369;-66
2021/10/18 06:36:14;;;;;;;;;40.00;34.75;;;;;13.88;50.78;99477.53;7582882;23;98383;-68
2021/10/18 06:39:17;;;;;;;;;41.20;34.20;;;;;13.79;51.25;99477.03;7583906;23;98528;-68
2021/10/18 06:42:22;;;;;;;;;43.60;35.40;;;;;13.86;51.23;99483.19;7585906;23;96512;-66
2021/10/18 06:45:25;;;;;;;;;43.75;35.00;;;;;13.89;51.06;99484.63;7586538;23;96620;-65
2021/10/18 06:48:28;;;;;;;;;41.60;33.00;;;;;13.85;51.48;99492.38;7584297;23;97651;-68
2021/10/18 06:51:34;;;;;;;;;46.20;36.00;;;;;13.81;51.50;99491.19;7583400;23;96809;-65
2021/10/18 06:54:40;;;;;;;;;41.00;34.00;;;;;13.88;51.78;99504.63;7585831;23;96577;-66
2021/10/18 06:57:44;;;;;;;;;41.00;35.00;;;;;13.96;51.84;99501.63;7583807;23;96400;-64
2021/10/18 07:00:50;;;;;;;;;41.75;35.00;;;;;14.03;51.52;99507.78;7585616;23;96589;-66
2021/10/18 07:03:54;;;;;;;;;43.40;36.00;;;;;14.01;51.52;99504.50;7558552;23;99410;-65
2021/10/18 07:06:58;;;;;;;;;43.50;34.50;;;;;13.92;51.23;99497.72;7586140;23;96426;-67
2021/10/18 07:10:02;;;;;;;;;41.00;33.60;;;;;14.05;51.54;99507.56;7584724;23;97283;-67
2021/10/18 07:13:09;;;;;;;;;45.00;36.00;;;;;14.07;51.36;99517.13;7585681;22;97357;-65
2021/10/18 07:16:13;;;;;;;;;42.60;34.60;;;;;14.18;51.18;99512.78;7585358;23;96953;-67
2021/10/18 07:19:16;;;;;;;;;40.00;34.00;;;;;14.22;51.25;99522.16;7586330;23;96719;-65
2021/10/18 07:22:25;;;;;;;;;40.25;33.75;;;;;14.26;51.32;99531.47;7585936;23;97396;-66
2021/10/18 07:25:28;;;;;;;;;37.60;33.00;;;;;14.19;51.37;99528.84;7585344;23;97187;-65
2021/10/18 07:28:33;;;;;;;;;39.40;34.60;;;;;14.23;52.17;99524.63;7584880;22;97416;-67
2021/10/18 07:31:36;;;;;;;;;39.00;33.00;;;;;14.35;51.60;99524.66;7582440;23;97725;-68
2021/10/18 07:34:40;;;;;;;;;43.40;35.60;;;;;14.28;51.85;99529.34;7586136;23;96631;-64
2021/10/18 07:37:51;;;;;;;;;38.00;32.20;;;;;14.32;51.76;99530.53;7584262;23;97350;-66
2021/10/18 07:40:54;;;;;;;;;37.40;32.00;;;;;14.33;51.92;99537.63;7582205;23;96774;-68
2021/10/18 07:43:59;;;;;;;;;35.00;31.00;;;;;14.40;51.86;99524.84;7607255;22;97200;-66
2021/10/18 07:47:02;;;;;;;;;38.60;32.40;;;;;14.40;52.12;99526.72;7585914;23;96613;-67
2021/10/18 07:50:10;;;;;;;;;38.40;32.00;;;;;14.48;52.05;99521.78;7583692;22;99377;-68
2021/10/18 07:53:13;;;;;;;;;36.00;31.00;;;;;14.58;51.94;99529.34;7584537;23;97380;-66
2021/10/18 07:56:16;;;;;;;;;33.00;30.25;;;;;14.60;51.88;99530.81;7581785;23;96779;-68
2021/10/18 07:59:21;;;;;;;;;34.00;30.40;;;;;14.72;51.63;99534.34;7584481;23;97400;-65
2021/10/18 08:02:24;;;;;;;;;37.60;32.00;;;;;14.81;51.94;99534.84;7581677;23;98439;-66
2021/10/18 08:05:27;;;;;;;;;34.80;31.40;;;;;14.92;51.59;99544.06;7582362;23;97367;-67
2021/10/18 08:08:33;;;;;;;;;32.40;30.00;;;;;14.94;51.38;99541.97;7607401;22;97207;-68
2021/10/18 08:11:37;;;;;;;;;31.80;28.00;;;;;14.91;51.22;99558.69;7583567;23;97678;-65
2021/10/18 08:14:42;;;;;;;;;36.50;30.50;;;;;14.89;51.22;99558.94;7585771;23;97403;-67
2021/10/18 08:17:45;;;;;;;;;33.75;28.50;;;;;14.87;51.61;99555.63;7585923;23;97365;-67
2021/10/18 08:20:48;;;;;;;;;30.80;29.00;;;;;14.95;51.29;99557.19;7584809;23;97051;-69
2021/10/18 08:23:51;;;;;;;;;32.60;30.00;;;;;14.80;51.18;99535.09;7582708;23;98384;-65
2021/10/18 08:26:55;;;;;;;;;29.00;26.60;;;;;14.94;51.36;99555.53;7584275;23;97897;-66
2021/10/18 08:29:59;;;;;;;;;28.00;26.40;;;;;14.99;51.27;99569.22;7586284;23;97320;-68
2021/10/18 08:33:02;;;;;;;;;30.00;26.40;;;;;15.02;50.92;99561.44;7610357;22;96614;-69
2021/10/18 08:36:06;;;;;;;;;32.00;26.50;;;;;14.98;51.00;99568.41;7586940;22;96863;-66
2021/10/18 08:42:41;;;;;;;;;27.60;25.60;;;;;14.98;51.58;99576.56;7586224;22;96581;-67
2021/10/18 08:45:47;;;;;;;;;27.50;26.00;;;;;15.02;51.34;99582.34;7634743;22;98009;-68
2021/10/18 08:48:52;;;;;;;;;30.40;26.00;;;;;14.87;51.40;99560.22;7585548;23;98345;-69
2021/10/18 08:51:56;;;;;;;;;27.40;24.00;;;;;14.99;51.40;99586.34;7635327;22;97377;-68
2021/10/18 08:54:59;;;;;;;;;32.00;28.00;;;;;15.01;51.55;99584.22;7608644;22;98004;-67
2021/10/18 08:58:02;;;;;;;;;29.00;26.00;;;;;15.01;51.75;99584.22;7586332;23;96521;-68
2021/10/18 09:01:07;;;;;;;;;27.20;26.20;;;;;15.10;51.72;99584.72;7585550;23;96371;-67
2021/10/18 09:04:12;;;;;;;;;29.00;27.00;;;;;15.00;51.92;99584.47;7586464;23;96918;-66
2021/10/18 09:07:17;;;;;;;;;27.00;26.00;;;;;14.96;52.26;99588.69;7609825;22;97446;-67
2021/10/18 09:10:20;;;;;;;;;30.50;27.00;;;;;14.93;52.61;99587.28;7609731;22;97350;-65
2021/10/18 09:13:23;;;;;;;;;30.00;27.00;;;;;14.97;52.77;99593.06;7585483;23;96637;-65
2021/10/18 09:16:30;;;;;;;;;32.00;28.00;;;;;14.99;52.91;99593.69;7584318;23;97356;-69
2021/10/18 09:19:33;;;;;;;;;27.00;26.00;;;;;15.15;52.84;99593.81;7587432;23;97238;-65
2021/10/18 09:22:36;;;;;;;;;30.00;27.00;;;;;15.20;52.79;99590.38;7585755;23;97022;-70
2021/10/18 09:25:40;;;;;;;;;27.60;26.60;;;;;15.31;52.75;99597.72;7586180;23;97005;-67
2021/10/18 09:28:44;;;;;;;;;28.60;26.00;;;;;15.33;52.63;99595.63;7585886;23;97858;-66
2021/10/18 09:31:59;;;;;;;;;29.00;25.00;;;;;15.32;52.94;99587.69;7585511;23;96435;-67
2021/10/18 09:35:07;;;;;;;;;30.60;27.40;;;;;15.28;52.89;99587.34;7585835;22;96443;-67
2021/10/18 09:38:12;;;;;;;;;28.00;27.00;;;;;15.27;53.10;99585.69;7586797;23;97966;-66
2021/10/18 09:41:24;;;;;;;;;27.00;23.80;;;;;15.28;53.55;99575.63;7584639;23;96479;-67
2021/10/18 10:52:56;;;;;;;;;23.60;22.20;;;;;15.87;52.51;99618.91;7485491;23;97097;-66
2021/10/18 10:56:18;;;;;;;;;28.00;25.00;;;;;15.79;52.33;99604.84;7511775;23;96503;-67
2021/10/18 10:59:25;;;;;;;;;26.00;24.00;;;;;15.80;52.37;99611.94;7510685;23;98166;-66
2021/10/18 11:02:30;;;;;;;;;30.00;25.00;;;;;15.78;52.39;99601.31;7511767;23;97335;-68
2021/10/18 11:05:34;;;;;;;;;26.00;24.00;;;;;15.76;52.79;99603.44;7509975;23;97358;-65
2021/10/18 11:08:39;;;;;;;;;28.00;24.40;;;;;15.81;52.35;99611.69;7510742;23;96479;-66
2021/10/18 11:11:44;;;;;;;;;28.50;25.00;;;;;15.85;52.43;99607.44;7509243;23;96973;-67
2021/10/18 11:14:56;;;;;;;;;32.00;27.00;;;;;15.78;52.38;99608.66;7555226;23;96871;-67
2021/10/18 11:17:59;;;;;;;;;30.75;28.75;;;;;15.80;52.61;99612.75;7586697;22;96383;-67
2021/10/18 11:21:12;;;;;;;;;31.80;29.00;;;;;15.81;52.77;99609.00;7586354;22;97098;-67
2021/10/18 11:24:16;;;;;;;;;31.40;27.40;;;;;15.71;52.88;99599.78;7583785;23;98390;-67
2021/10/18 11:27:30;;;;;;;;;33.60;30.00;;;;;15.67;53.05;99599.44;7585880;22;97367;-68
2021/10/18 11:30:35;;;;;;;;;33.00;29.00;;;;;15.72;52.84;99604.97;7585026;23;98344;-67
2021/10/18 11:33:38;;;;;;;;;34.50;30.00;;;;;15.72;52.85;99596.81;7584256;23;96621;-66
2021/10/18 11:36:44;;;;;;;;;31.40;28.20;;;;;15.81;52.70;99591.84;7634049;22;97223;-66
2021/10/18 11:39:47;;;;;;;;;34.00;30.00;;;;;15.75;53.02;99593.63;7587238;23;96452;-64
2021/10/18 11:42:54;;;;;;;;;35.60;31.00;;;;;15.75;52.93;99585.47;7587777;22;97213;-67
2021/10/18 11:45:58;;;;;;;;;39.20;32.00;;;;;15.66;53.33;99581.47;7586194;23;97635;-67
2021/10/18 11:49:08;;;;;;;;;32.50;28.00;;;;;15.75;53.00;99590.91;7585318;23;97170;-68
2021/10/18 11:52:11;;;;;;;;;32.00;29.80;;;;;15.89;52.86;99607.78;7587090;23;96400;-70
2021/10/18 11:55:17;;;;;;;;;34.80;30.00;;;;;15.95;52.54;99613.09;7609895;22;97105;-68
2021/10/18 11:58:24;;;;;;;;;32.00;29.00;;;;;15.97;52.78;99613.69;7584700;23;97015;-67
2021/10/18 12:01:28;;;;;;;;;34.00;30.00;;;;;16.00;52.48;99617.81;7586836;22;97083;-67
2021/10/18 12:04:55;;;;;;;;;32.20;29.60;;;;;16.02;52.30;99615.72;7585669;22;97174;-65
2021/10/18 12:07:58;;;;;;;;;31.80;27.80;;;;;16.04;52.26;99617.09;7609993;22;97398;-67
2021/10/18 12:11:03;;;;;;;;;37.40;31.40;;;;;16.15;52.01;99614.59;7585027;23;96548;-66
2021/10/18 12:14:08;;;;;;;;;34.25;30.25;;;;;16.23;51.64;99619.66;7585681;23;96881;-66
2021/10/18 12:17:12;;;;;;;;;34.60;30.40;;;;;16.01;51.96;99608.59;7584777;23;97060;-66
2021/10/18 12:20:15;;;;;;;;;32.60;28.60;;;;;16.06;52.11;99605.16;7585144;23;96617;-65
2021/10/18 12:23:23;;;;;;;;;32.00;28.40;;;;;16.03;52.22;99610.00;7583812;23;98301;-66
2021/10/18 12:26:28;;;;;;;;;32.60;30.00;;;;;16.03;52.20;99611.91;7585783;23;97598;-66
2021/10/18 12:29:38;;;;;;;;;36.40;32.00;;;;;16.00;52.30;99613.22;7583898;23;96613;-65
2021/10/18 12:32:41;;;;;;;;;29.00;27.40;;;;;16.00;52.32;99602.34;7586400;23;97512;-65
2021/10/18 12:35:57;;;;;;;;;37.00;30.00;;;;;15.96;52.59;99603.06;7584467;22;97172;-65
2021/10/18 12:39:01;;;;;;;;;36.20;30.00;;;;;16.00;52.31;99606.94;7583978;23;97131;-67
2021/10/18 12:42:04;;;;;;;;;39.60;32.00;;;;;15.94;52.48;99605.16;7608840;22;97192;-68
2021/10/18 12:45:11;;;;;;;;;40.00;31.40;;;;;15.98;52.40;99609.06;7585827;23;96387;-65
2021/10/18 12:48:22;;;;;;;;;35.00;30.00;;;;;15.97;52.41;99615.59;7585789;23;97353;-65
2021/10/18 12:51:38;;;;;;;;;34.40;30.00;;;;;15.95;52.53;99609.56;7584097;23;97963;-63
2021/10/18 12:54:44;;;;;;;;;32.00;30.00;;;;;15.97;52.71;99613.69;7611088;22;97363;-65
2021/10/18 12:57:48;;;;;;;;;40.00;32.50;;;;;15.98;52.58;99623.50;7610057;22;96871;-66
2021/10/18 13:00:54;;;;;;;;;32.80;30.00;;;;;16.01;52.41;99612.16;7584901;23;96621;-67
2021/10/18 13:04:16;;;;;;;;;39.00;31.80;;;;;16.06;52.48;99618.75;7584411;22;97368;-66
2021/10/18 13:07:20;;;;;;;;;38.20;32.80;;;;;16.07;52.51;99632.13;7586481;22;96772;-65
2021/10/18 13:10:26;;;;;;;;;43.60;34.60;;;;;16.06;52.61;99630.47;7585528;23;99426;-67
2021/10/18 13:13:30;;;;;;;;;43.40;35.00;;;;;15.91;52.99;99621.97;7611227;22;99187;-68
2021/10/18 13:16:34;;;;;;;;;39.40;33.00;;;;;15.88;53.21;99630.63;7558399;23;97217;-66
2021/10/18 13:19:38;;;;;;;;;44.50;34.00;;;;;15.95;52.93;99634.84;7588198;23;97380;-66
2021/10/18 13:22:42;;;;;;;;;43.60;34.60;;;;;15.94;53.05;99627.75;7584056;23;98265;-65
2021/10/18 13:25:46;;;;;;;;;40.00;33.00;;;;;15.92;53.08;99638.06;7587230;23;96441;-67
2021/10/18 13:28:49;;;;;;;;;40.50;35.00;;;;;15.89;53.27;99645.84;7585200;22;97399;-67
2021/10/18 13:31:54;;;;;;;;;43.00;34.00;;;;;16.02;53.16;99640.19;7582345;23;98669;-66
2021/10/18 13:34:57;;;;;;;;;43.00;33.00;;;;;16.10;52.91;99647.13;7609074;22;97120;-65
2021/10/18 13:38:02;;;;;;;;;45.75;35.00;;;;;16.15;52.71;99639.09;7585710;23;96876;-66
2021/10/18 13:41:07;;;;;;;;;39.40;33.00;;;;;16.10;52.78;99641.69;7585213;22;97251;-65
2021/10/18 13:44:10;;;;;;;;;40.00;32.25;;;;;16.04;53.09;99640.75;7584860;22;97055;-67
2021/10/18 13:47:15;;;;;;;;;40.40;33.80;;;;;16.07;53.02;99650.34;7586141;23;97147;-66
2021/10/18 13:50:19;;;;;;;;;42.00;34.40;;;;;15.97;53.27;99651.78;7584726;23;96968;-66
2021/10/18 13:53:23;;;;;;;;;43.80;35.00;;;;;15.99;53.41;99648.81;7585006;22;97044;-67
2021/10/18 13:56:26;;;;;;;;;38.50;33.00;;;;;16.00;53.52;99654.00;7582998;23;96758;-67
2021/10/18 13:59:29;;;;;;;;;39.00;33.00;;;;;16.03;53.27;99650.81;7584797;23;96891;-67
2021/10/18 14:02:35;;;;;;;;;43.00;34.60;;;;;16.01;53.33;99644.78;7584941;23;96467;-67
2021/10/18 14:05:39;;;;;;;;;42.80;35.00;;;;;16.02;53.44;99645.63;7584470;23;97441;-67
2021/10/18 14:08:43;;;;;;;;;44.20;34.60;;;;;15.96;53.45;99644.69;7583647;22;97026;-67
2021/10/18 14:11:47;;;;;;;;;39.00;33.00;;;;;15.87;53.72;99643.38;7585722;22;96544;-67
2021/10/18 14:14:50;;;;;;;;;47.00;36.00;;;;;15.84;53.92;99643.84;7581654;23;96867;-66
2021/10/18 14:17:55;;;;;;;;;43.25;33.00;;;;;15.90;53.74;99639.34;7584175;22;97470;-67
2021/10/18 14:20:58;;;;;;;;;45.50;35.50;;;;;15.76;54.04;99644.22;7583692;23;97399;-66
2021/10/18 14:24:04;;;;;;;;;41.00;35.00;;;;;15.77;54.11;99648.59;7581959;23;97102;-67
2021/10/18 14:27:07;;;;;;;;;38.75;32.75;;;;;15.93;53.70;99660.66;7607461;22;96896;-67
2021/10/18 14:30:12;;;;;;;;;47.00;35.00;;;;;15.89;53.82;99657.56;7585024;23;97050;-67
2021/10/18 14:33:17;;;;;;;;;43.00;34.60;;;;;15.91;53.82;99658.16;7582779;23;96627;-67
2021/10/18 14:36:21;;;;;;;;;44.80;36.00;;;;;15.85;54.02;99655.56;7584666;23;96377;-66
2021/10/18 14:39:24;;;;;;;;;42.40;36.00;;;;;15.83;54.01;99653.06;7584811;23;96475;-67
2021/10/18 14:42:27;;;;;;;;;45.00;35.00;;;;;15.81;54.08;99660.66;7584773;23;97013;-66
2021/10/18 14:45:31;;;;;;;;;42.00;33.00;;;;;15.89;54.01;99665.72;7582921;23;97444;-67
2021/10/18 14:48:36;;;;;;;;;44.20;34.20;;;;;15.89;54.08;99664.88;7582445;23;97040;-66
2021/10/18 14:51:39;;;;;;;;;39.40;33.00;;;;;15.86;54.18;99651.78;7584888;23;97944;-67
2021/10/18 14:54:43;;;;;;;;;37.75;31.00;;;;;15.87;54.09;99656.16;7607903;22;97296;-66
2021/10/18 14:57:46;;;;;;;;;39.00;32.00;;;;;15.87;54.00;99664.31;7584878;23;97139;-66
2021/10/18 15:00:50;;;;;;;;;39.80;32.40;;;;;15.90;54.02;99666.53;7583411;23;96644;-66
2021/10/18 15:03:56;;;;;;;;;37.40;32.00;;;;;15.88;54.22;99665.97;7588024;23;97348;-66
2021/10/18 15:07:00;;;;;;;;;37.00;30.80;;;;;15.93;54.11;99661.44;7584885;23;97705;-67
2021/10/18 15:10:04;;;;;;;;;41.50;32.00;;;;;15.97;54.06;99670.81;7582750;23;97595;-67
2021/10/18 15:13:08;;;;;;;;;40.40;33.00;;;;;15.93;54.28;99674.25;7587866;23;97307;-66
2021/10/18 15:16:12;;;;;;;;;39.50;33.00;;;;;15.89;54.28;99676.59;7583192;23;97203;-66
2021/10/18 15:19:16;;;;;;;;;38.80;32.40;;;;;15.92;54.43;99680.75;7588298;23;96964;-67